sensor_id;sensor_type;location;lat;lon;timestamp;temperature;humidity
4615;DHT22;2320;51.362;6.946;2023-10-19T00:01:47;12.60;99.90
4615;DHT22;2320;51.362;6.946;2023-10-19T00:04:13;12.70;99.90
4615;DHT22;2320;51.362;6.946;2023-10-19T00:06:38;12.60;99.90
4615;DHT22;2320;51.362;6.946;2023-10-19T00:09:05;12.60;99.90
4615;DHT22;2320;51.362;6.946;2023-10-19T00:11:36;12.60;99.90
4615;DHT22;2320;51.362;6.946;2023-10-19T00:14:03;12.70;99.90
4615;DHT22;2320;51.362;6.946;2023-10-19T00:16:28;12.70;99.90
4615;DHT22;2320;51.362;6.946;2023-10-19T00:19:01;12.70;99.90
4615;DHT22;2320;51.362;6.946;2023-10-19T00:21:26;12.80;99.90
4615;DHT22;2320;51.362;6.946;2023-10-19T00:23:54;12.80;99.90
4615;DHT22;2320;51.362;6.946;2023-10-19T00:26:23;12.90;99.90
4615;DHT22;2320;51.362;6.946;2023-10-19T00:28:50;13.00;99.90
4615;DHT22;2320;51.362;6.946;2023-10-19T00:31:19;13.00;99.90
4615;DHT22;2320;51.362;6.946;2023-10-19T00:33:46;13.00;99.90
4615;DHT22;2320;51.362;6.946;2023-10-19T00:36:11;13.00;99.90
4615;DHT22;2320;51.362;6.946;2023-10-19T00:38:40;13.00;99.90
4615;DHT22;2320;51.362;6.946;2023-10-19T00:41:07;13.10;99.90
4615;DHT22;2320;51.362;6.946;2023-10-19T00:43:37;13.10;99.90
4615;DHT22;2320;51.362;6.946;2023-10-19T00:46:17;13.10;99.90
4615;DHT22;2320;51.362;6.946;2023-10-19T00:48:51;13.10;99.90
4615;DHT22;2320;51.362;6.946;2023-10-19T00:51:20;13.10;99.90
4615;DHT22;2320;51.362;6.946;2023-10-19T00:54:00;13.10;99.90
4615;DHT22;2320;51.362;6.946;2023-10-19T00:56:33;13.10;99.90
4615;DHT22;2320;51.362;6.946;2023-10-19T00:58:58;13.10;99.90
4615;DHT22;2320;51.362;6.946;2023-10-19T01:01:51;13.10;99.90
4615;DHT22;2320;51.362;6.946;2023-10-19T01:04:20;13.10;99.90
4615;DHT22;2320;51.362;6.946;2023-10-19T01:06:48;13.10;99.90
4615;DHT22;2320;51.362;6.946;2023-10-19T01:09:27;13.10;99.90
4615;DHT22;2320;51.362;6.946;2023-10-19T01:11:53;13.20;99.90
4615;DHT22;2320;51.362;6.946;2023-10-19T01:14:19;13.20;99.90
4615;DHT22;2320;51.362;6.946;2023-10-19T01:16:46;13.30;99.90
4615;DHT22;2320;51.362;6.946;2023-10-19T01:19:13;13.30;99.90
4615;DHT22;2320;51.362;6.946;2023-10-19T01:21:43;13.30;99.90
4615;DHT22;2320;51.362;6.946;2023-10-19T01:24:17;13.40;99.90
4615;DHT22;2320;51.362;6.946;2023-10-19T01:26:45;13.50;99.90
4615;DHT22;2320;51.362;6.946;2023-10-19T01:29:12;13.50;99.90
4615;DHT22;2320;51.362;6.946;2023-10-19T01:31:42;13.60;99.90
4615;DHT22;2320;51.362;6.946;2023-10-19T01:34:21;13.60;99.90
4615;DHT22;2320;51.362;6.946;2023-10-19T01:36:47;13.50;99.90
4615;DHT22;2320;51.362;6.946;2023-10-19T01:39:16;13.60;99.90
4615;DHT22;2320;51.362;6.946;2023-10-19T01:41:44;13.70;99.90
4615;DHT22;2320;51.362;6.946;2023-10-19T01:44:09;13.80;99.90
4615;DHT22;2320;51.362;6.946;2023-10-19T01:46:38;13.70;99.90
4615;DHT22;2320;51.362;6.946;2023-10-19T01:49:04;13.70;99.90
4615;DHT22;2320;51.362;6.946;2023-10-19T01:51:30;13.80;99.90
4615;DHT22;2320;51.362;6.946;2023-10-19T01:53:58;13.80;99.90
4615;DHT22;2320;51.362;6.946;2023-10-19T01:56:24;13.80;99.90
4615;DHT22;2320;51.362;6.946;2023-10-19T01:58:50;13.80;99.90
4615;DHT22;2320;51.362;6.946;2023-10-19T02:01:19;13.90;99.90
4615;DHT22;2320;51.362;6.946;2023-10-19T02:03:51;13.90;99.90
4615;DHT22;2320;51.362;6.946;2023-10-19T02:06:20;13.90;99.90
4615;DHT22;2320;51.362;6.946;2023-10-19T02:08:54;13.90;99.90
4615;DHT22;2320;51.362;6.946;2023-10-19T02:11:22;14.00;99.90
4615;DHT22;2320;51.362;6.946;2023-10-19T02:13:48;14.10;99.90
4615;DHT22;2320;51.362;6.946;2023-10-19T02:16:17;14.10;99.90
4615;DHT22;2320;51.362;6.946;2023-10-19T02:18:46;14.10;99.90
4615;DHT22;2320;51.362;6.946;2023-10-19T02:21:12;14.20;99.90
4615;DHT22;2320;51.362;6.946;2023-10-19T02:23:38;14.30;99.90
4615;DHT22;2320;51.362;6.946;2023-10-19T02:26:05;14.30;99.90
4615;DHT22;2320;51.362;6.946;2023-10-19T02:28:30;14.30;99.90
4615;DHT22;2320;51.362;6.946;2023-10-19T02:31:05;14.40;99.90
4615;DHT22;2320;51.362;6.946;2023-10-19T02:33:44;14.50;99.90
4615;DHT22;2320;51.362;6.946;2023-10-19T02:36:17;14.50;99.90
4615;DHT22;2320;51.362;6.946;2023-10-19T02:38:47;14.50;99.90
4615;DHT22;2320;51.362;6.946;2023-10-19T02:41:19;14.60;99.90
4615;DHT22;2320;51.362;6.946;2023-10-19T02:43:46;14.60;99.90
4615;DHT22;2320;51.362;6.946;2023-10-19T02:46:13;14.60;99.90
4615;DHT22;2320;51.362;6.946;2023-10-19T02:48:39;14.60;99.90
4615;DHT22;2320;51.362;6.946;2023-10-19T02:51:10;14.70;99.90
4615;DHT22;2320;51.362;6.946;2023-10-19T02:53:37;14.70;99.90
4615;DHT22;2320;51.362;6.946;2023-10-19T02:56:10;14.80;99.90
4615;DHT22;2320;51.362;6.946;2023-10-19T02:58:36;14.80;99.90
4615;DHT22;2320;51.362;6.946;2023-10-19T03:01:02;14.90;99.90
4615;DHT22;2320;51.362;6.946;2023-10-19T03:03:27;14.80;99.90
4615;DHT22;2320;51.362;6.946;2023-10-19T03:05:56;14.80;99.90
4615;DHT22;2320;51.362;6.946;2023-10-19T03:08:24;14.80;99.90
4615;DHT22;2320;51.362;6.946;2023-10-19T03:10:52;14.80;99.90
4615;DHT22;2320;51.362;6.946;2023-10-19T03:13:29;14.80;99.90
4615;DHT22;2320;51.362;6.946;2023-10-19T03:15:54;14.90;99.90
4615;DHT22;2320;51.362;6.946;2023-10-19T03:18:20;14.90;99.90
4615;DHT22;2320;51.362;6.946;2023-10-19T03:20:45;14.90;99.90
4615;DHT22;2320;51.362;6.946;2023-10-19T03:23:11;15.00;99.90
4615;DHT22;2320;51.362;6.946;2023-10-19T03:25:36;15.00;99.90
4615;DHT22;2320;51.362;6.946;2023-10-19T03:28:22;15.10;99.90
4615;DHT22;2320;51.362;6.946;2023-10-19T03:30:51;15.10;99.90
4615;DHT22;2320;51.362;6.946;2023-10-19T03:33:16;15.20;99.90
4615;DHT22;2320;51.362;6.946;2023-10-19T03:35:43;15.10;99.90
4615;DHT22;2320;51.362;6.946;2023-10-19T03:38:09;15.00;99.90
4615;DHT22;2320;51.362;6.946;2023-10-19T03:40:44;15.00;99.90
4615;DHT22;2320;51.362;6.946;2023-10-19T03:43:17;15.00;99.90
4615;DHT22;2320;51.362;6.946;2023-10-19T03:45:47;15.10;99.90
4615;DHT22;2320;51.362;6.946;2023-10-19T03:48:17;15.00;99.90
4615;DHT22;2320;51.362;6.946;2023-10-19T03:50:43;15.00;99.90
4615;DHT22;2320;51.362;6.946;2023-10-19T03:53:08;15.10;99.90
4615;DHT22;2320;51.362;6.946;2023-10-19T03:55:38;15.10;99.90
4615;DHT22;2320;51.362;6.946;2023-10-19T03:58:04;15.20;99.90
4615;DHT22;2320;51.362;6.946;2023-10-19T04:00:30;15.20;99.90
4615;DHT22;2320;51.362;6.946;2023-10-19T04:02:58;15.20;99.90
4615;DHT22;2320;51.362;6.946;2023-10-19T04:05:24;15.20;99.90
4615;DHT22;2320;51.362;6.946;2023-10-19T04:07:51;15.30;99.90
4615;DHT22;2320;51.362;6.946;2023-10-19T04:10:23;15.30;99.90
4615;DHT22;2320;51.362;6.946;2023-10-19T04:12:55;15.30;99.90
4615;DHT22;2320;51.362;6.946;2023-10-19T04:15:20;15.50;99.90
4615;DHT22;2320;51.362;6.946;2023-10-19T04:17:46;15.40;99.90
4615;DHT22;2320;51.362;6.946;2023-10-19T04:20:13;15.30;99.90
4615;DHT22;2320;51.362;6.946;2023-10-19T04:22:41;15.50;99.90
4615;DHT22;2320;51.362;6.946;2023-10-19T04:25:07;15.40;99.90
4615;DHT22;2320;51.362;6.946;2023-10-19T04:27:33;15.40;99.90
4615;DHT22;2320;51.362;6.946;2023-10-19T04:30:01;15.40;99.90
4615;DHT22;2320;51.362;6.946;2023-10-19T04:32:27;15.30;99.90
4615;DHT22;2320;51.362;6.946;2023-10-19T04:34:53;15.40;99.90
4615;DHT22;2320;51.362;6.946;2023-10-19T04:37:19;15.40;99.90
4615;DHT22;2320;51.362;6.946;2023-10-19T04:39:45;15.40;99.90
4615;DHT22;2320;51.362;6.946;2023-10-19T04:42:10;15.50;99.90
4615;DHT22;2320;51.362;6.946;2023-10-19T04:44:36;15.60;99.90
4615;DHT22;2320;51.362;6.946;2023-10-19T04:47:01;15.50;99.90
4615;DHT22;2320;51.362;6.946;2023-10-19T04:49:27;15.60;99.90
4615;DHT22;2320;51.362;6.946;2023-10-19T04:51:53;15.60;99.90
4615;DHT22;2320;51.362;6.946;2023-10-19T04:54:19;15.50;99.90
4615;DHT22;2320;51.362;6.946;2023-10-19T04:56:44;15.60;99.90
4615;DHT22;2320;51.362;6.946;2023-10-19T04:59:10;15.50;99.90
4615;DHT22;2320;51.362;6.946;2023-10-19T05:01:35;15.60;99.90
4615;DHT22;2320;51.362;6.946;2023-10-19T05:04:02;15.60;99.90
4615;DHT22;2320;51.362;6.946;2023-10-19T05:06:28;15.60;99.90
4615;DHT22;2320;51.362;6.946;2023-10-19T05:08:53;15.60;99.90
4615;DHT22;2320;51.362;6.946;2023-10-19T05:11:19;15.50;99.90
4615;DHT22;2320;51.362;6.946;2023-10-19T05:13:44;15.50;99.90
4615;DHT22;2320;51.362;6.946;2023-10-19T05:16:10;15.50;99.90
4615;DHT22;2320;51.362;6.946;2023-10-19T05:18:35;15.40;99.90
4615;DHT22;2320;51.362;6.946;2023-10-19T05:21:01;15.40;99.90
4615;DHT22;2320;51.362;6.946;2023-10-19T05:23:27;15.50;99.90
4615;DHT22;2320;51.362;6.946;2023-10-19T05:25:53;15.40;99.90
4615;DHT22;2320;51.362;6.946;2023-10-19T05:28:19;15.40;99.90
4615;DHT22;2320;51.362;6.946;2023-10-19T05:30:45;15.40;99.90
4615;DHT22;2320;51.362;6.946;2023-10-19T05:33:10;15.30;99.90
4615;DHT22;2320;51.362;6.946;2023-10-19T05:35:36;15.30;99.90
4615;DHT22;2320;51.362;6.946;2023-10-19T05:38:06;15.40;99.90
4615;DHT22;2320;51.362;6.946;2023-10-19T05:40:32;15.40;99.90
4615;DHT22;2320;51.362;6.946;2023-10-19T05:42:57;15.40;99.90
4615;DHT22;2320;51.362;6.946;2023-10-19T05:45:23;15.30;99.90
4615;DHT22;2320;51.362;6.946;2023-10-19T05:47:49;15.30;99.90
4615;DHT22;2320;51.362;6.946;2023-10-19T05:50:15;15.20;99.90
4615;DHT22;2320;51.362;6.946;2023-10-19T05:52:43;15.10;99.90
4615;DHT22;2320;51.362;6.946;2023-10-19T05:55:09;15.10;99.90
4615;DHT22;2320;51.362;6.946;2023-10-19T05:57:39;15.20;99.90
4615;DHT22;2320;51.362;6.946;2023-10-19T06:00:08;15.10;99.90
4615;DHT22;2320;51.362;6.946;2023-10-19T06:02:44;15.10;99.90
4615;DHT22;2320;51.362;6.946;2023-10-19T06:05:10;15.10;99.90
4615;DHT22;2320;51.362;6.946;2023-10-19T06:07:35;15.00;99.90
4615;DHT22;2320;51.362;6.946;2023-10-19T06:10:01;15.00;99.90
4615;DHT22;2320;51.362;6.946;2023-10-19T06:12:33;15.00;99.90
4615;DHT22;2320;51.362;6.946;2023-10-19T06:14:58;15.10;99.90
4615;DHT22;2320;51.362;6.946;2023-10-19T06:17:28;15.10;99.90
4615;DHT22;2320;51.362;6.946;2023-10-19T06:19:54;15.10;99.90
4615;DHT22;2320;51.362;6.946;2023-10-19T06:22:20;15.20;99.90
4615;DHT22;2320;51.362;6.946;2023-10-19T06:24:45;15.20;99.90
4615;DHT22;2320;51.362;6.946;2023-10-19T06:27:10;15.20;99.90
4615;DHT22;2320;51.362;6.946;2023-10-19T06:29:36;15.20;99.90
4615;DHT22;2320;51.362;6.946;2023-10-19T06:32:01;15.30;99.90
4615;DHT22;2320;51.362;6.946;2023-10-19T06:34:27;15.30;99.90
4615;DHT22;2320;51.362;6.946;2023-10-19T06:36:53;15.30;99.90
4615;DHT22;2320;51.362;6.946;2023-10-19T06:39:20;15.30;99.90
4615;DHT22;2320;51.362;6.946;2023-10-19T06:41:46;15.30;99.90
4615;DHT22;2320;51.362;6.946;2023-10-19T06:44:12;15.40;99.90
4615;DHT22;2320;51.362;6.946;2023-10-19T06:46:38;15.40;99.90
4615;DHT22;2320;51.362;6.946;2023-10-19T06:49:04;15.50;99.90
4615;DHT22;2320;51.362;6.946;2023-10-19T06:51:30;15.50;99.90
4615;DHT22;2320;51.362;6.946;2023-10-19T06:53:56;15.30;99.90
4615;DHT22;2320;51.362;6.946;2023-10-19T06:56:21;15.40;99.90
4615;DHT22;2320;51.362;6.946;2023-10-19T06:58:47;15.40;99.90
4615;DHT22;2320;51.362;6.946;2023-10-19T07:01:13;15.40;99.90
4615;DHT22;2320;51.362;6.946;2023-10-19T07:03:42;15.30;99.90
4615;DHT22;2320;51.362;6.946;2023-10-19T07:06:07;15.30;99.90
4615;DHT22;2320;51.362;6.946;2023-10-19T07:08:33;15.40;99.90
4615;DHT22;2320;51.362;6.946;2023-10-19T07:10:58;15.50;99.90
4615;DHT22;2320;51.362;6.946;2023-10-19T07:13:25;15.60;99.90
4615;DHT22;2320;51.362;6.946;2023-10-19T07:15:51;15.60;99.90
4615;DHT22;2320;51.362;6.946;2023-10-19T07:18:16;15.60;99.90
4615;DHT22;2320;51.362;6.946;2023-10-19T07:20:42;15.60;99.90
4615;DHT22;2320;51.362;6.946;2023-10-19T07:23:08;15.60;99.90
4615;DHT22;2320;51.362;6.946;2023-10-19T07:25:50;15.70;99.90
4615;DHT22;2320;51.362;6.946;2023-10-19T07:28:19;15.80;99.90
4615;DHT22;2320;51.362;6.946;2023-10-19T07:30:45;15.80;99.90
4615;DHT22;2320;51.362;6.946;2023-10-19T07:33:11;15.80;99.90
4615;DHT22;2320;51.362;6.946;2023-10-19T07:35:42;15.80;99.90
4615;DHT22;2320;51.362;6.946;2023-10-19T07:38:09;15.80;99.90
4615;DHT22;2320;51.362;6.946;2023-10-19T07:40:35;15.80;99.90
4615;DHT22;2320;51.362;6.946;2023-10-19T07:43:01;15.90;99.90
4615;DHT22;2320;51.362;6.946;2023-10-19T07:45:26;15.90;99.90
4615;DHT22;2320;51.362;6.946;2023-10-19T07:47:52;15.90;99.90
4615;DHT22;2320;51.362;6.946;2023-10-19T07:50:19;16.00;99.90
4615;DHT22;2320;51.362;6.946;2023-10-19T07:52:45;16.00;99.90
4615;DHT22;2320;51.362;6.946;2023-10-19T07:55:12;16.00;99.90
4615;DHT22;2320;51.362;6.946;2023-10-19T07:57:38;16.10;99.90
4615;DHT22;2320;51.362;6.946;2023-10-19T08:00:06;16.10;99.90
4615;DHT22;2320;51.362;6.946;2023-10-19T08:02:34;16.20;99.90
4615;DHT22;2320;51.362;6.946;2023-10-19T08:05:00;16.20;99.90
4615;DHT22;2320;51.362;6.946;2023-10-19T08:07:28;16.20;99.90
4615;DHT22;2320;51.362;6.946;2023-10-19T08:09:53;16.40;99.90
4615;DHT22;2320;51.362;6.946;2023-10-19T08:12:20;16.40;99.90
4615;DHT22;2320;51.362;6.946;2023-10-19T08:14:48;16.40;99.90
4615;DHT22;2320;51.362;6.946;2023-10-19T08:17:14;16.40;99.90
4615;DHT22;2320;51.362;6.946;2023-10-19T08:19:39;16.50;99.90
4615;DHT22;2320;51.362;6.946;2023-10-19T08:22:05;16.50;99.90
4615;DHT22;2320;51.362;6.946;2023-10-19T08:24:30;16.50;99.90
4615;DHT22;2320;51.362;6.946;2023-10-19T08:27:00;16.60;99.90
4615;DHT22;2320;51.362;6.946;2023-10-19T08:29:26;16.70;99.90
4615;DHT22;2320;51.362;6.946;2023-10-19T08:31:51;16.90;99.90
4615;DHT22;2320;51.362;6.946;2023-10-19T08:34:17;16.90;99.90
4615;DHT22;2320;51.362;6.946;2023-10-19T08:36:42;17.10;99.90
4615;DHT22;2320;51.362;6.946;2023-10-19T08:39:09;17.30;99.90
4615;DHT22;2320;51.362;6.946;2023-10-19T08:41:37;17.50;99.90
4615;DHT22;2320;51.362;6.946;2023-10-19T08:44:03;17.70;99.90
4615;DHT22;2320;51.362;6.946;2023-10-19T08:46:29;17.90;99.90
4615;DHT22;2320;51.362;6.946;2023-10-19T08:48:55;18.00;99.90
4615;DHT22;2320;51.362;6.946;2023-10-19T08:51:22;18.00;99.90
4615;DHT22;2320;51.362;6.946;2023-10-19T08:53:48;18.00;99.90
4615;DHT22;2320;51.362;6.946;2023-10-19T08:56:14;18.10;99.90
4615;DHT22;2320;51.362;6.946;2023-10-19T08:58:41;18.20;99.90
4615;DHT22;2320;51.362;6.946;2023-10-19T09:01:06;18.50;99.90
4615;DHT22;2320;51.362;6.946;2023-10-19T09:03:32;18.60;99.90
4615;DHT22;2320;51.362;6.946;2023-10-19T09:06:01;18.60;99.90
4615;DHT22;2320;51.362;6.946;2023-10-19T09:08:27;18.60;99.90
4615;DHT22;2320;51.362;6.946;2023-10-19T09:11:10;18.60;99.90
4615;DHT22;2320;51.362;6.946;2023-10-19T09:13:45;18.50;99.90
4615;DHT22;2320;51.362;6.946;2023-10-19T09:16:21;18.70;99.90
4615;DHT22;2320;51.362;6.946;2023-10-19T09:18:47;18.80;99.90
4615;DHT22;2320;51.362;6.946;2023-10-19T09:21:16;18.90;99.90
4615;DHT22;2320;51.362;6.946;2023-10-19T09:23:51;19.00;99.90
4615;DHT22;2320;51.362;6.946;2023-10-19T09:26:17;19.20;99.90
4615;DHT22;2320;51.362;6.946;2023-10-19T09:28:45;19.20;99.90
4615;DHT22;2320;51.362;6.946;2023-10-19T09:31:12;19.30;99.90
4615;DHT22;2320;51.362;6.946;2023-10-19T09:33:40;19.50;99.90
4615;DHT22;2320;51.362;6.946;2023-10-19T09:36:05;19.40;99.90
4615;DHT22;2320;51.362;6.946;2023-10-19T09:38:47;19.40;99.90
4615;DHT22;2320;51.362;6.946;2023-10-19T09:41:22;19.50;99.90
4615;DHT22;2320;51.362;6.946;2023-10-19T09:43:53;19.40;99.90
4615;DHT22;2320;51.362;6.946;2023-10-19T09:46:25;19.50;99.90
4615;DHT22;2320;51.362;6.946;2023-10-19T09:48:51;19.90;99.90
4615;DHT22;2320;51.362;6.946;2023-10-19T09:51:17;20.00;99.90
4615;DHT22;2320;51.362;6.946;2023-10-19T09:53:45;20.20;99.90
4615;DHT22;2320;51.362;6.946;2023-10-19T09:56:13;20.10;99.90
4615;DHT22;2320;51.362;6.946;2023-10-19T09:58:42;20.10;99.90
4615;DHT22;2320;51.362;6.946;2023-10-19T10:01:10;20.10;99.90
4615;DHT22;2320;51.362;6.946;2023-10-19T10:03:48;19.90;99.90
4615;DHT22;2320;51.362;6.946;2023-10-19T10:06:17;19.80;99.90
4615;DHT22;2320;51.362;6.946;2023-10-19T10:08:51;19.90;99.90
4615;DHT22;2320;51.362;6.946;2023-10-19T10:11:24;20.10;99.90
4615;DHT22;2320;51.362;6.946;2023-10-19T10:13:50;20.10;99.90
4615;DHT22;2320;51.362;6.946;2023-10-19T10:16:25;20.20;99.90
4615;DHT22;2320;51.362;6.946;2023-10-19T10:18:51;20.20;99.90
4615;DHT22;2320;51.362;6.946;2023-10-19T10:21:19;20.20;99.90
4615;DHT22;2320;51.362;6.946;2023-10-19T10:23:50;20.10;99.90
4615;DHT22;2320;51.362;6.946;2023-10-19T10:26:19;20.30;99.90
4615;DHT22;2320;51.362;6.946;2023-10-19T10:28:46;20.50;99.90
4615;DHT22;2320;51.362;6.946;2023-10-19T10:31:30;20.60;99.90
4615;DHT22;2320;51.362;6.946;2023-10-19T10:33:59;20.70;99.90
4615;DHT22;2320;51.362;6.946;2023-10-19T10:36:25;20.60;99.90
4615;DHT22;2320;51.362;6.946;2023-10-19T10:38:51;20.70;99.90
4615;DHT22;2320;51.362;6.946;2023-10-19T10:41:23;20.90;99.90
4615;DHT22;2320;51.362;6.946;2023-10-19T10:43:58;21.00;99.90
4615;DHT22;2320;51.362;6.946;2023-10-19T10:46:24;21.00;99.90
4615;DHT22;2320;51.362;6.946;2023-10-19T10:48:50;21.00;99.90
4615;DHT22;2320;51.362;6.946;2023-10-19T10:51:23;20.80;99.90
4615;DHT22;2320;51.362;6.946;2023-10-19T10:53:49;20.60;99.90
4615;DHT22;2320;51.362;6.946;2023-10-19T10:56:16;20.60;99.90
4615;DHT22;2320;51.362;6.946;2023-10-19T10:58:42;20.50;99.90
4615;DHT22;2320;51.362;6.946;2023-10-19T11:01:07;20.60;99.90
4615;DHT22;2320;51.362;6.946;2023-10-19T11:03:33;20.50;99.90
4615;DHT22;2320;51.362;6.946;2023-10-19T11:06:05;20.60;99.90
4615;DHT22;2320;51.362;6.946;2023-10-19T11:08:33;20.60;99.90
4615;DHT22;2320;51.362;6.946;2023-10-19T11:11:03;20.80;99.90
4615;DHT22;2320;51.362;6.946;2023-10-19T11:13:30;20.80;99.90
4615;DHT22;2320;51.362;6.946;2023-10-19T11:15:58;20.80;99.90
4615;DHT22;2320;51.362;6.946;2023-10-19T11:20:57;20.60;99.90
4615;DHT22;2320;51.362;6.946;2023-10-19T11:26:04;20.50;99.90
4615;DHT22;2320;51.362;6.946;2023-10-19T11:28:33;20.40;99.90
4615;DHT22;2320;51.362;6.946;2023-10-19T11:31:12;20.50;99.90
4615;DHT22;2320;51.362;6.946;2023-10-19T11:33:39;20.50;99.90
4615;DHT22;2320;51.362;6.946;2023-10-19T11:36:05;20.50;99.90
4615;DHT22;2320;51.362;6.946;2023-10-19T11:38:30;20.40;99.90
4615;DHT22;2320;51.362;6.946;2023-10-19T11:40:56;20.30;99.90
4615;DHT22;2320;51.362;6.946;2023-10-19T11:43:22;20.30;99.90
4615;DHT22;2320;51.362;6.946;2023-10-19T11:45:48;20.30;99.90
4615;DHT22;2320;51.362;6.946;2023-10-19T11:48:13;20.20;99.90
4615;DHT22;2320;51.362;6.946;2023-10-19T11:50:41;20.30;99.90
4615;DHT22;2320;51.362;6.946;2023-10-19T11:53:06;20.20;99.90
4615;DHT22;2320;51.362;6.946;2023-10-19T11:55:35;20.20;99.90
4615;DHT22;2320;51.362;6.946;2023-10-19T11:58:00;20.20;99.90
4615;DHT22;2320;51.362;6.946;2023-10-19T12:00:26;20.20;99.90
4615;DHT22;2320;51.362;6.946;2023-10-19T12:02:59;20.00;99.90
4615;DHT22;2320;51.362;6.946;2023-10-19T12:05:25;20.20;99.90
4615;DHT22;2320;51.362;6.946;2023-10-19T12:07:50;20.30;99.90
4615;DHT22;2320;51.362;6.946;2023-10-19T12:10:17;20.40;99.90
4615;DHT22;2320;51.362;6.946;2023-10-19T12:12:45;20.40;99.90
4615;DHT22;2320;51.362;6.946;2023-10-19T12:15:11;20.40;99.90
4615;DHT22;2320;51.362;6.946;2023-10-19T12:17:37;20.50;99.90
4615;DHT22;2320;51.362;6.946;2023-10-19T12:20:03;20.60;99.90
4615;DHT22;2320;51.362;6.946;2023-10-19T12:22:31;20.50;99.90
4615;DHT22;2320;51.362;6.946;2023-10-19T12:24:57;20.60;99.90
4615;DHT22;2320;51.362;6.946;2023-10-19T12:27:24;20.60;99.90
4615;DHT22;2320;51.362;6.946;2023-10-19T12:29:50;20.60;99.90
4615;DHT22;2320;51.362;6.946;2023-10-19T12:32:17;20.50;99.90
4615;DHT22;2320;51.362;6.946;2023-10-19T12:34:44;20.50;99.90
4615;DHT22;2320;51.362;6.946;2023-10-19T12:37:10;20.50;99.90
4615;DHT22;2320;51.362;6.946;2023-10-19T12:39:38;20.40;99.90
4615;DHT22;2320;51.362;6.946;2023-10-19T12:42:08;20.30;99.90
4615;DHT22;2320;51.362;6.946;2023-10-19T12:44:34;20.40;99.90
4615;DHT22;2320;51.362;6.946;2023-10-19T12:47:05;20.40;99.90
4615;DHT22;2320;51.362;6.946;2023-10-19T12:49:35;20.30;99.90
4615;DHT22;2320;51.362;6.946;2023-10-19T12:52:01;20.40;99.90
4615;DHT22;2320;51.362;6.946;2023-10-19T12:54:29;20.30;99.90
4615;DHT22;2320;51.362;6.946;2023-10-19T12:56:54;20.30;99.90
4615;DHT22;2320;51.362;6.946;2023-10-19T12:59:20;20.20;99.90
4615;DHT22;2320;51.362;6.946;2023-10-19T13:01:45;20.20;99.90
4615;DHT22;2320;51.362;6.946;2023-10-19T13:04:14;20.10;99.90
4615;DHT22;2320;51.362;6.946;2023-10-19T13:06:43;20.10;99.90
4615;DHT22;2320;51.362;6.946;2023-10-19T13:09:09;20.00;99.90
4615;DHT22;2320;51.362;6.946;2023-10-19T13:11:34;19.80;99.90
4615;DHT22;2320;51.362;6.946;2023-10-19T13:14:00;19.90;99.90
4615;DHT22;2320;51.362;6.946;2023-10-19T13:16:31;19.80;99.90
4615;DHT22;2320;51.362;6.946;2023-10-19T13:18:57;19.80;99.90
4615;DHT22;2320;51.362;6.946;2023-10-19T13:21:22;19.80;99.90
4615;DHT22;2320;51.362;6.946;2023-10-19T13:23:53;19.90;99.90
4615;DHT22;2320;51.362;6.946;2023-10-19T13:26:18;20.00;99.90
4615;DHT22;2320;51.362;6.946;2023-10-19T13:28:44;19.70;99.90
4615;DHT22;2320;51.362;6.946;2023-10-19T13:31:10;19.60;99.90
4615;DHT22;2320;51.362;6.946;2023-10-19T13:33:36;19.50;99.90
4615;DHT22;2320;51.362;6.946;2023-10-19T13:36:02;19.50;99.90
4615;DHT22;2320;51.362;6.946;2023-10-19T13:38:27;19.30;99.90
4615;DHT22;2320;51.362;6.946;2023-10-19T13:40:53;19.20;99.90
4615;DHT22;2320;51.362;6.946;2023-10-19T13:43:19;19.00;99.90
4615;DHT22;2320;51.362;6.946;2023-10-19T13:45:46;18.90;99.90
4615;DHT22;2320;51.362;6.946;2023-10-19T13:48:13;18.80;99.90
4615;DHT22;2320;51.362;6.946;2023-10-19T13:50:42;18.70;99.90
4615;DHT22;2320;51.362;6.946;2023-10-19T13:53:09;18.60;99.90
4615;DHT22;2320;51.362;6.946;2023-10-19T13:55:35;18.50;99.90
4615;DHT22;2320;51.362;6.946;2023-10-19T13:58:02;18.40;99.90
4615;DHT22;2320;51.362;6.946;2023-10-19T14:00:27;18.40;99.90
4615;DHT22;2320;51.362;6.946;2023-10-19T14:02:56;18.30;99.90
4615;DHT22;2320;51.362;6.946;2023-10-19T14:05:22;18.40;99.90
4615;DHT22;2320;51.362;6.946;2023-10-19T14:07:50;18.30;99.90
4615;DHT22;2320;51.362;6.946;2023-10-19T14:10:15;18.20;99.90
4615;DHT22;2320;51.362;6.946;2023-10-19T14:12:41;18.10;99.90
4615;DHT22;2320;51.362;6.946;2023-10-19T14:15:17;18.20;99.90
4615;DHT22;2320;51.362;6.946;2023-10-19T14:17:43;18.20;99.90
4615;DHT22;2320;51.362;6.946;2023-10-19T14:20:11;18.00;99.90
4615;DHT22;2320;51.362;6.946;2023-10-19T14:22:49;18.00;99.90
4615;DHT22;2320;51.362;6.946;2023-10-19T14:25:14;18.00;99.90
4615;DHT22;2320;51.362;6.946;2023-10-19T14:27:40;17.90;99.90
4615;DHT22;2320;51.362;6.946;2023-10-19T14:30:07;17.90;99.90
4615;DHT22;2320;51.362;6.946;2023-10-19T14:32:33;17.80;99.90
4615;DHT22;2320;51.362;6.946;2023-10-19T14:34:59;17.70;99.90
4615;DHT22;2320;51.362;6.946;2023-10-19T14:37:25;17.70;99.90
4615;DHT22;2320;51.362;6.946;2023-10-19T14:39:50;17.60;99.90
4615;DHT22;2320;51.362;6.946;2023-10-19T14:42:16;17.70;99.90
4615;DHT22;2320;51.362;6.946;2023-10-19T14:44:41;17.70;99.90
4615;DHT22;2320;51.362;6.946;2023-10-19T14:47:07;17.70;99.90
4615;DHT22;2320;51.362;6.946;2023-10-19T14:49:33;17.60;99.90
4615;DHT22;2320;51.362;6.946;2023-10-19T14:51:58;17.70;99.90
4615;DHT22;2320;51.362;6.946;2023-10-19T14:54:24;17.70;99.90
4615;DHT22;2320;51.362;6.946;2023-10-19T14:56:49;17.70;99.90
4615;DHT22;2320;51.362;6.946;2023-10-19T14:59:15;17.60;99.90
4615;DHT22;2320;51.362;6.946;2023-10-19T15:01:40;17.60;99.90
4615;DHT22;2320;51.362;6.946;2023-10-19T15:04:06;17.60;99.90
4615;DHT22;2320;51.362;6.946;2023-10-19T15:06:31;17.50;99.90
4615;DHT22;2320;51.362;6.946;2023-10-19T15:08:57;17.50;99.90
4615;DHT22;2320;51.362;6.946;2023-10-19T15:11:23;17.50;99.90
4615;DHT22;2320;51.362;6.946;2023-10-19T15:13:50;17.60;99.90
4615;DHT22;2320;51.362;6.946;2023-10-19T15:16:16;17.50;99.90
4615;DHT22;2320;51.362;6.946;2023-10-19T15:18:42;17.50;99.90
4615;DHT22;2320;51.362;6.946;2023-10-19T15:21:11;17.40;99.90
4615;DHT22;2320;51.362;6.946;2023-10-19T15:23:39;17.40;99.90
4615;DHT22;2320;51.362;6.946;2023-10-19T15:26:06;17.40;99.90
4615;DHT22;2320;51.362;6.946;2023-10-19T15:28:32;17.40;99.90
4615;DHT22;2320;51.362;6.946;2023-10-19T15:30:59;17.40;99.90
4615;DHT22;2320;51.362;6.946;2023-10-19T15:33:28;17.30;99.90
4615;DHT22;2320;51.362;6.946;2023-10-19T15:35:56;17.40;99.90
4615;DHT22;2320;51.362;6.946;2023-10-19T15:38:22;17.40;99.90
4615;DHT22;2320;51.362;6.946;2023-10-19T15:40:49;17.40;99.90
4615;DHT22;2320;51.362;6.946;2023-10-19T15:43:16;17.40;99.90
4615;DHT22;2320;51.362;6.946;2023-10-19T15:45:41;17.50;99.90
4615;DHT22;2320;51.362;6.946;2023-10-19T15:48:09;17.50;99.90
4615;DHT22;2320;51.362;6.946;2023-10-19T15:50:40;17.50;99.90
4615;DHT22;2320;51.362;6.946;2023-10-19T15:53:08;17.60;99.90
4615;DHT22;2320;51.362;6.946;2023-10-19T15:55:35;17.70;99.90
4615;DHT22;2320;51.362;6.946;2023-10-19T15:58:01;17.70;99.90
4615;DHT22;2320;51.362;6.946;2023-10-19T16:00:26;17.70;99.90
4615;DHT22;2320;51.362;6.946;2023-10-19T16:02:52;17.70;99.90
4615;DHT22;2320;51.362;6.946;2023-10-19T16:05:17;17.80;99.90
4615;DHT22;2320;51.362;6.946;2023-10-19T16:07:43;17.80;99.90
4615;DHT22;2320;51.362;6.946;2023-10-19T16:10:09;17.80;99.90